Time;durP1;ratioP1;P1;durP2;ratioP2;P2;SDS_P1;SDS_P2;PMS_P1;PMS_P2;Temp;Humidity;BMP_temperature;BMP_pressure;BME280_temperature;BME280_humidity;BME280_pressure;Samples;Min_cycle;Max_cycle;Signal;HPM_P1;HPM_P2
2023/09/18 00:00:51;;;;;;;28.30;16.50;;;16.90;100.00;;;;;;5025661;28;20049;-70
2023/09/18 00:03:20;;;;;;;30.75;17.17;;;16.90;100.00;;;;;;5004516;28;20100;-71
2023/09/18 00:05:47;;;;;;;31.58;17.15;;;16.90;100.00;;;;;;5023854;28;20045;-71
2023/09/18 00:08:15;;;;;;;31.23;16.88;;;16.90;100.00;;;;;;5025208;28;20049;-71
2023/09/18 00:10:46;;;;;;;30.70;16.83;;;16.90;100.00;;;;;;5005320;28;20060;-71
2023/09/18 00:13:13;;;;;;;31.23;16.30;;;16.90;100.00;;;;;;5011031;28;20099;-71
2023/09/18 00:15:41;;;;;;;29.85;16.27;;;16.90;100.00;;;;;;5023142;28;20107;-71
2023/09/18 00:18:07;;;;;;;34.58;17.55;;;16.90;100.00;;;;;;5032693;28;20488;-71
2023/09/18 00:20:35;;;;;;;30.33;16.70;;;16.90;100.00;;;;;;5027849;28;20045;-71
2023/09/18 00:23:02;;;;;;;32.97;17.15;;;16.90;100.00;;;;;;5028755;28;20053;-71
2023/09/18 00:25:30;;;;;;;33.00;17.08;;;16.90;100.00;;;;;;5032406;28;20055;-71
2023/09/18 00:27:57;;;;;;;28.15;16.55;;;16.90;100.00;;;;;;5025278;28;20095;-71
2023/09/18 00:30:24;;;;;;;31.88;17.85;;;16.90;100.00;;;;;;5026380;28;20060;-71
2023/09/18 00:32:51;;;;;;;34.55;17.67;;;16.90;100.00;;;;;;5021850;28;20084;-71
2023/09/18 00:35:18;;;;;;;32.47;17.10;;;16.90;100.00;;;;;;5038043;22;22075;-76
2023/09/18 00:37:46;;;;;;;28.23;16.13;;;16.90;100.00;;;;;;5028532;28;20583;-75
2023/09/18 00:40:13;;;;;;;32.63;17.70;;;16.90;100.00;;;;;;5028248;28;20132;-77
2023/09/18 00:42:40;;;;;;;32.47;17.95;;;16.90;100.00;;;;;;5043693;28;20049;-77
2023/09/18 00:45:09;;;;;;;28.52;16.63;;;16.90;100.00;;;;;;5052849;28;20064;-76
2023/09/18 00:47:43;;;;;;;36.25;17.23;;;16.90;100.00;;;;;;5047860;28;20063;-77
2023/09/18 00:50:13;;;;;;;31.30;17.17;;;16.80;100.00;;;;;;5037531;28;20048;-77
2023/09/18 00:52:43;;;;;;;33.38;17.38;;;16.80;100.00;;;;;;5044934;28;20064;-76
2023/09/18 00:55:13;;;;;;;29.58;16.40;;;16.80;100.00;;;;;;5032161;28;20049;-77
2023/09/18 00:57:41;;;;;;;29.48;16.75;;;16.80;100.00;;;;;;5036066;28;20051;-77
2023/09/18 01:00:08;;;;;;;30.92;16.42;;;16.80;100.00;;;;;;5044449;28;20513;-77
2023/09/18 01:02:36;;;;;;;32.00;17.30;;;16.80;100.00;;;;;;5044835;28;20585;-77
2023/09/18 01:05:06;;;;;;;30.63;17.60;;;16.80;100.00;;;;;;5015981;28;20111;-77
2023/09/18 01:07:34;;;;;;;30.48;17.83;;;16.80;100.00;;;;;;5031603;28;20099;-77
2023/09/18 01:10:03;;;;;;;31.40;17.73;;;16.80;100.00;;;;;;5046516;28;20057;-77
2023/09/18 01:12:40;;;;;;;27.60;15.93;;;16.80;100.00;;;;;;5044215;28;20052;-77
2023/09/18 01:15:19;;;;;;;31.88;16.65;;;16.90;100.00;;;;;;5038953;28;20041;-76
2023/09/18 01:17:51;;;;;;;27.77;16.60;;;16.90;100.00;;;;;;5022738;28;20136;-77
2023/09/18 01:20:18;;;;;;;35.97;17.02;;;16.90;100.00;;;;;;5045467;28;20064;-77
2023/09/18 01:22:49;;;;;;;32.55;15.82;;;17.00;100.00;;;;;;5044471;28;20061;-76
2023/09/18 01:25:16;;;;;;;26.00;15.55;;;16.90;100.00;;;;;;5042873;28;20439;-76
2023/09/18 01:27:43;;;;;;;29.45;16.13;;;16.90;100.00;;;;;;5021602;28;20096;-77
2023/09/18 01:30:12;;;;;;;28.63;15.50;;;16.90;100.00;;;;;;5047824;28;20103;-76
2023/09/18 01:32:40;;;;;;;27.13;16.42;;;16.90;100.00;;;;;;5038994;28;20048;-77
2023/09/18 01:35:09;;;;;;;28.10;16.17;;;16.90;100.00;;;;;;5036402;28;20052;-77
2023/09/18 01:37:37;;;;;;;30.90;16.15;;;16.90;100.00;;;;;;5031486;28;20123;-77
2023/09/18 01:40:08;;;;;;;28.77;15.75;;;16.90;100.00;;;;;;5046058;28;20601;-77
2023/09/18 01:42:35;;;;;;;27.02;15.45;;;16.90;100.00;;;;;;5044957;28;20085;-77
2023/09/18 01:45:05;;;;;;;26.52;15.52;;;16.80;100.00;;;;;;5031122;28;20111;-76
2023/09/18 01:47:33;;;;;;;27.38;15.95;;;16.80;100.00;;;;;;5045750;28;20085;-76
2023/09/18 01:50:07;;;;;;;29.55;15.77;;;16.80;100.00;;;;;;5021606;28;20061;-77
2023/09/18 01:52:34;;;;;;;27.50;15.48;;;16.80;100.00;;;;;;5030528;28;20053;-77
2023/09/18 01:55:04;;;;;;;28.60;15.60;;;16.80;100.00;;;;;;5049847;28;20108;-77
2023/09/18 01:57:31;;;;;;;25.50;15.15;;;16.80;100.00;;;;;;5027435;28;20056;-77
2023/09/18 01:59:58;;;;;;;25.95;14.60;;;16.70;100.00;;;;;;5045008;28;20091;-77
2023/09/18 02:02:29;;;;;;;26.13;15.20;;;16.70;100.00;;;;;;5019983;28;20057;-77
2023/09/18 02:05:17;;;;;;;27.45;15.45;;;16.70;100.00;;;;;;5035088;28;20057;-76
2023/09/18 02:07:45;;;;;;;28.05;16.05;;;16.70;100.00;;;;;;5032550;28;20737;-76
2023/09/18 02:10:13;;;;;;;32.38;15.30;;;16.70;100.00;;;;;;5043897;28;20072;-76
2023/09/18 02:12:40;;;;;;;29.27;14.52;;;16.60;100.00;;;;;;5037362;28;20049;-76
2023/09/18 02:15:10;;;;;;;30.48;16.23;;;16.60;100.00;;;;;;5047151;28;20076;-76
2023/09/18 02:17:38;;;;;;;28.23;15.27;;;16.60;100.00;;;;;;5023968;28;20128;-76
2023/09/18 02:20:11;;;;;;;27.50;15.10;;;16.60;100.00;;;;;;5038453;28;20046;-76
2023/09/18 02:22:40;;;;;;;27.30;15.52;;;16.50;100.00;;;;;;5024664;28;20486;-76
2023/09/18 02:25:08;;;;;;;27.17;15.75;;;16.50;100.00;;;;;;5022126;28;20494;-76
2023/09/18 02:27:35;;;;;;;26.65;15.20;;;16.40;100.00;;;;;;5026870;28;20688;-76
2023/09/18 02:30:02;;;;;;;28.08;16.45;;;16.40;100.00;;;;;;5041301;28;20164;-76
2023/09/18 02:32:32;;;;;;;27.13;15.70;;;16.40;100.00;;;;;;5025960;28;20060;-76
2023/09/18 02:35:00;;;;;;;27.58;16.42;;;16.30;100.00;;;;;;5031413;28;20802;-76
2023/09/18 02:37:29;;;;;;;26.65;15.85;;;16.30;100.00;;;;;;5040586;28;20080;-76
2023/09/18 02:39:56;;;;;;;27.30;15.45;;;16.20;100.00;;;;;;5039230;28;20041;-76
2023/09/18 02:42:23;;;;;;;26.33;15.60;;;16.20;100.00;;;;;;5045337;28;20064;-76
2023/09/18 02:44:53;;;;;;;25.40;15.27;;;16.20;100.00;;;;;;5029824;28;20049;-76
2023/09/18 02:47:24;;;;;;;27.88;16.08;;;16.20;100.00;;;;;;5033079;28;20512;-76
2023/09/18 02:49:52;;;;;;;28.08;15.43;;;16.10;100.00;;;;;;5029901;28;20051;-77
2023/09/18 02:52:19;;;;;;;26.55;15.68;;;16.10;100.00;;;;;;5030173;28;20057;-76
2023/09/18 02:54:46;;;;;;;29.77;17.35;;;16.10;100.00;;;;;;5023996;28;20055;-76
2023/09/18 02:57:16;;;;;;;30.90;16.55;;;16.10;100.00;;;;;;5041956;28;20087;-76
2023/09/18 02:59:45;;;;;;;27.00;16.40;;;16.10;100.00;;;;;;5027955;28;20057;-76
2023/09/18 03:02:12;;;;;;;29.73;16.55;;;16.10;100.00;;;;;;5044318;28;20480;-76
2023/09/18 03:04:39;;;;;;;29.02;16.17;;;16.20;100.00;;;;;;5048255;28;20057;-71
2023/09/18 03:07:06;;;;;;;25.85;16.30;;;16.20;100.00;;;;;;5041761;28;20052;-71
2023/09/18 03:09:33;;;;;;;29.17;15.95;;;16.20;100.00;;;;;;5046472;28;20500;-71
2023/09/18 03:12:00;;;;;;;29.33;16.92;;;16.20;100.00;;;;;;5045265;28;20083;-71
2023/09/18 03:14:27;;;;;;;29.95;17.10;;;16.20;100.00;;;;;;5044107;28;20122;-71
2023/09/18 03:16:54;;;;;;;28.52;16.55;;;16.20;100.00;;;;;;5039525;28;20143;-71
2023/09/18 03:19:22;;;;;;;26.88;16.48;;;16.20;100.00;;;;;;5040549;28;20049;-71
2023/09/18 03:21:49;;;;;;;30.25;17.27;;;16.20;100.00;;;;;;5037122;28;20056;-71
2023/09/18 03:24:16;;;;;;;30.35;17.35;;;16.20;100.00;;;;;;5040861;28;20049;-70
2023/09/18 03:26:42;;;;;;;23.63;15.27;;;16.20;100.00;;;;;;5021765;28;20133;-71
2023/09/18 03:29:09;;;;;;;26.38;16.35;;;16.10;100.00;;;;;;5044376;28;20098;-70
2023/09/18 03:31:36;;;;;;;27.30;16.48;;;16.10;100.00;;;;;;5040997;28;20157;-78
2023/09/18 03:34:03;;;;;;;27.95;16.20;;;16.10;100.00;;;;;;5022902;28;20052;-77
2023/09/18 03:36:30;;;;;;;26.08;16.02;;;16.10;100.00;;;;;;5041224;28;20239;-77
2023/09/18 03:38:57;;;;;;;24.10;15.52;;;16.10;100.00;;;;;;5044448;28;20045;-78
2023/09/18 03:41:24;;;;;;;30.65;17.15;;;16.10;100.00;;;;;;5042616;28;20115;-77
2023/09/18 03:43:51;;;;;;;26.77;16.35;;;16.10;100.00;;;;;;5048440;28;20048;-77
2023/09/18 03:46:18;;;;;;;26.73;15.95;;;16.00;100.00;;;;;;5044420;28;20076;-78
2023/09/18 03:48:46;;;;;;;33.25;16.65;;;16.00;100.00;;;;;;5036478;28;20049;-77
2023/09/18 03:51:15;;;;;;;27.52;16.55;;;16.00;100.00;;;;;;5039576;28;20080;-78
2023/09/18 03:53:43;;;;;;;26.83;16.42;;;15.90;100.00;;;;;;5017707;28;20076;-77
2023/09/18 03:56:10;;;;;;;28.85;16.33;;;15.90;100.00;;;;;;5016709;28;20053;-77
2023/09/18 03:58:36;;;;;;;27.67;15.18;;;15.80;100.00;;;;;;5037530;28;20053;-77
2023/09/18 04:01:03;;;;;;;24.67;15.00;;;15.80;100.00;;;;;;5035798;28;20540;-77
2023/09/18 04:03:30;;;;;;;23.63;15.07;;;15.80;100.00;;;;;;5032168;28;20085;-77
2023/09/18 04:05:57;;;;;;;28.92;16.33;;;15.70;100.00;;;;;;5019092;28;20144;-77
2023/09/18 04:08:24;;;;;;;27.08;15.55;;;15.70;100.00;;;;;;5037059;28;20064;-77
2023/09/18 04:10:55;;;;;;;29.90;16.17;;;15.70;100.00;;;;;;5038410;28;20412;-77
2023/09/18 04:13:22;;;;;;;28.65;16.08;;;15.70;100.00;;;;;;5044150;28;20048;-77
2023/09/18 04:15:49;;;;;;;28.63;15.23;;;15.70;100.00;;;;;;5018077;28;20831;-77
2023/09/18 04:18:16;;;;;;;31.25;17.48;;;15.60;100.00;;;;;;5040235;28;20051;-77
2023/09/18 04:20:43;;;;;;;25.85;16.05;;;15.60;100.00;;;;;;5039489;28;21503;-77
2023/09/18 04:23:20;;;;;;;31.98;16.80;;;15.60;100.00;;;;;;5036117;28;20107;-77
2023/09/18 04:25:47;;;;;;;24.77;16.38;;;15.60;100.00;;;;;;5033524;28;20053;-77
2023/09/18 04:28:17;;;;;;;31.23;18.45;;;15.60;100.00;;;;;;5043392;28;20088;-77
2023/09/18 04:30:44;;;;;;;30.60;15.45;;;15.60;100.00;;;;;;5038926;28;20076;-76
2023/09/18 04:33:13;;;;;;;30.08;15.68;;;15.60;100.00;;;;;;5027646;28;20123;-76
2023/09/18 04:35:40;;;;;;;25.65;16.15;;;15.60;100.00;;;;;;5022069;28;20055;-77
2023/09/18 04:38:10;;;;;;;24.90;15.73;;;15.60;100.00;;;;;;5041368;28;20049;-76
2023/09/18 04:40:37;;;;;;;28.75;16.60;;;15.60;100.00;;;;;;5022350;28;20051;-76
2023/09/18 04:43:08;;;;;;;24.50;15.85;;;15.60;100.00;;;;;;5029825;28;20578;-77
2023/09/18 04:45:34;;;;;;;24.77;15.90;;;15.60;100.00;;;;;;5039107;28;20456;-77
2023/09/18 04:48:02;;;;;;;26.50;16.90;;;15.60;100.00;;;;;;5020402;28;20512;-77
2023/09/18 04:50:30;;;;;;;27.48;15.20;;;15.60;100.00;;;;;;5037045;28;20057;-78
2023/09/18 04:52:57;;;;;;;29.33;15.60;;;15.60;100.00;;;;;;5030623;28;20056;-78
2023/09/18 04:55:24;;;;;;;28.77;16.08;;;15.60;100.00;;;;;;5021489;28;20087;-77
2023/09/18 04:57:51;;;;;;;24.33;15.30;;;15.70;100.00;;;;;;5019439;28;20045;-77
2023/09/18 05:00:23;;;;;;;27.20;16.13;;;15.70;100.00;;;;;;5026741;28;20052;-78
2023/09/18 05:02:50;;;;;;;22.33;14.80;;;15.70;100.00;;;;;;5037704;28;20053;-77
2023/09/18 05:05:17;;;;;;;27.52;15.07;;;15.70;100.00;;;;;;5045040;28;20173;-79
2023/09/18 05:07:45;;;;;;;27.95;16.27;;;15.80;100.00;;;;;;5041936;28;20119;-79
2023/09/18 05:10:12;;;;;;;28.30;15.43;;;15.80;100.00;;;;;;5028267;28;20077;-80
2023/09/18 05:12:40;;;;;;;23.73;14.40;;;15.80;100.00;;;;;;5039519;28;20132;-77
2023/09/18 05:15:16;;;;;;;24.25;14.52;;;15.80;100.00;;;;;;5043935;28;20114;-79
2023/09/18 05:17:47;;;;;;;27.20;15.45;;;15.80;100.00;;;;;;5041868;28;20049;-76
2023/09/18 05:20:16;;;;;;;25.00;15.98;;;15.90;100.00;;;;;;5030877;28;20041;-78
2023/09/18 05:22:45;;;;;;;25.35;13.75;;;15.90;100.00;;;;;;5043664;28;20052;-76
2023/09/18 05:25:15;;;;;;;23.80;15.05;;;16.00;100.00;;;;;;5046361;28;20528;-78
2023/09/18 05:27:45;;;;;;;20.17;13.23;;;16.00;100.00;;;;;;5022976;28;20480;-77
2023/09/18 05:30:20;;;;;;;20.23;13.43;;;16.00;100.00;;;;;;5035945;28;20064;-77
2023/09/18 05:32:48;;;;;;;27.02;14.02;;;16.10;100.00;;;;;;5041240;28;20060;-77
2023/09/18 05:35:16;;;;;;;20.08;13.68;;;16.10;100.00;;;;;;5034730;28;20055;-76
2023/09/18 05:37:43;;;;;;;21.42;13.40;;;16.10;100.00;;;;;;5047408;28;20128;-77
2023/09/18 05:40:12;;;;;;;23.83;14.20;;;16.20;100.00;;;;;;5024560;28;20527;-76
2023/09/18 05:42:45;;;;;;;23.50;12.32;;;16.20;100.00;;;;;;5042557;28;20128;-76
2023/09/18 05:45:13;;;;;;;25.90;14.43;;;16.20;100.00;;;;;;5043382;28;20048;-76
2023/09/18 05:47:42;;;;;;;21.25;12.60;;;16.30;100.00;;;;;;5035146;28;20150;-76
2023/09/18 05:50:14;;;;;;;24.60;13.95;;;16.30;100.00;;;;;;5023325;28;20140;-77
2023/09/18 05:52:43;;;;;;;20.27;12.55;;;16.40;100.00;;;;;;5018990;28;20390;-76
2023/09/18 05:55:10;;;;;;;22.92;12.95;;;16.50;100.00;;;;;;5044104;28;20052;-77
2023/09/18 05:57:37;;;;;;;15.20;10.73;;;16.60;100.00;;;;;;5037893;28;20119;-76
2023/09/18 06:00:05;;;;;;;20.92;11.80;;;16.70;100.00;;;;;;5047285;28;20053;-76
2023/09/18 06:02:32;;;;;;;16.88;11.57;;;16.80;100.00;;;;;;5045189;28;20045;-76
2023/09/18 06:05:03;;;;;;;16.75;11.82;;;17.00;100.00;;;;;;5024591;28;20044;-77
2023/09/18 06:07:30;;;;;;;23.67;11.70;;;17.10;100.00;;;;;;5030731;28;20139;-77
2023/09/18 06:09:58;;;;;;;17.35;11.30;;;17.30;99.60;;;;;;5040496;28;20052;-76
2023/09/18 06:12:25;;;;;;;15.15;11.10;;;17.40;99.30;;;;;;5042255;28;20124;-76
2023/09/18 06:14:52;;;;;;;16.38;10.77;;;17.60;98.40;;;;;;5014969;28;20129;-76
2023/09/18 06:17:19;;;;;;;12.30;9.70;;;17.80;97.70;;;;;;5017355;28;20081;-76
2023/09/18 06:19:46;;;;;;;13.80;9.40;;;17.90;96.80;;;;;;5033411;28;20048;-76
2023/09/18 06:22:13;;;;;;;12.82;9.50;;;18.00;96.20;;;;;;5042096;28;20088;-76
2023/09/18 06:24:40;;;;;;;17.17;10.10;;;18.10;95.60;;;;;;5039484;28;20525;-76
2023/09/18 06:27:07;;;;;;;17.77;10.50;;;18.20;95.40;;;;;;5040773;28;20487;-76
2023/09/18 06:29:37;;;;;;;58.70;13.80;;;18.30;95.00;;;;;;5038321;28;20513;-75
2023/09/18 06:32:06;;;;;;;77.30;14.73;;;18.40;94.40;;;;;;5033284;28;20549;-76
2023/09/18 06:34:33;;;;;;;35.15;10.82;;;18.50;94.70;;;;;;5034408;28;20065;-76
2023/09/18 06:37:06;;;;;;;14.75;8.60;;;18.60;94.20;;;;;;5028460;28;20053;-77
2023/09/18 06:39:33;;;;;;;15.45;8.90;;;18.70;94.00;;;;;;5032490;28;20494;-76
2023/09/18 06:41:59;;;;;;;13.77;8.95;;;18.80;92.70;;;;;;5018764;28;20053;-76
2023/09/18 06:44:26;;;;;;;18.65;9.20;;;18.90;93.20;;;;;;5039009;28;20053;-76
2023/09/18 06:46:53;;;;;;;12.48;8.52;;;19.00;92.90;;;;;;5037198;28;20059;-76
2023/09/18 06:49:20;;;;;;;16.75;9.23;;;19.00;93.30;;;;;;5019403;28;20088;-76
2023/09/18 06:51:47;;;;;;;14.85;8.63;;;19.20;92.50;;;;;;5039013;28;20557;-76
2023/09/18 06:54:15;;;;;;;12.75;8.10;;;19.30;92.00;;;;;;5020258;28;20055;-77
2023/09/18 06:56:44;;;;;;;13.60;7.43;;;19.50;91.30;;;;;;5019096;28;20110;-77
2023/09/18 06:59:12;;;;;;;17.98;9.85;;;19.70;91.50;;;;;;5029753;28;20098;-76
2023/09/18 07:01:41;;;;;;;12.98;8.02;;;19.90;90.80;;;;;;5021504;28;20049;-77
2023/09/18 07:04:09;;;;;;;16.80;7.38;;;20.10;90.10;;;;;;5034734;28;20049;-76
2023/09/18 07:06:37;;;;;;;12.77;8.27;;;20.50;89.00;;;;;;5042979;28;20587;-77
2023/09/18 07:09:06;;;;;;;15.65;7.88;;;20.80;88.00;;;;;;5024978;28;20568;-76
2023/09/18 07:11:34;;;;;;;17.48;7.97;;;21.10;86.30;;;;;;5038418;28;20088;-77
2023/09/18 07:14:06;;;;;;;10.85;6.53;;;21.40;85.80;;;;;;5041319;28;20045;-77
2023/09/18 07:16:33;;;;;;;8.60;6.93;;;21.60;82.80;;;;;;5038321;28;20452;-77
2023/09/18 07:19:04;;;;;;;120.38;18.42;;;21.90;82.40;;;;;;5036506;28;20048;-76
2023/09/18 07:21:31;;;;;;;40.58;12.27;;;22.20;82.30;;;;;;5034691;28;20080;-77
2023/09/18 07:23:58;;;;;;;12.20;6.88;;;22.50;80.10;;;;;;5041394;28;20136;-77
2023/09/18 07:26:25;;;;;;;15.40;6.53;;;22.70;79.20;;;;;;5016815;28;20054;-77
2023/09/18 07:28:52;;;;;;;8.27;5.88;;;22.90;79.00;;;;;;5038274;28;21317;-77
2023/09/18 07:31:19;;;;;;;14.02;5.40;;;23.00;78.50;;;;;;5028813;28;20428;-77
2023/09/18 07:33:47;;;;;;;336.45;38.53;;;23.30;77.30;;;;;;5034577;28;20132;-77
2023/09/18 07:36:15;;;;;;;24.48;7.97;;;23.50;76.30;;;;;;5038738;28;20045;-77
2023/09/18 07:38:44;;;;;;;10.18;5.82;;;23.70;76.10;;;;;;5020983;28;20479;-77
2023/09/18 07:41:11;;;;;;;12.20;5.93;;;23.80;74.10;;;;;;5030951;28;20140;-78
2023/09/18 07:43:39;;;;;;;11.25;6.32;;;23.90;74.20;;;;;;5020053;28;20051;-78
2023/09/18 07:46:06;;;;;;;12.48;7.22;;;24.20;73.40;;;;;;5017848;28;20081;-77
2023/09/18 07:48:34;;;;;;;12.35;6.35;;;24.50;72.00;;;;;;5036132;28;20562;-77
2023/09/18 07:51:01;;;;;;;8.25;6.00;;;24.80;72.90;;;;;;5031769;28;20458;-77
2023/09/18 07:53:28;;;;;;;7.00;5.38;;;25.20;70.20;;;;;;5032234;28;20438;-77
2023/09/18 07:55:58;;;;;;;10.63;5.68;;;25.50;68.50;;;;;;5036565;28;20080;-77
2023/09/18 07:58:27;;;;;;;9.10;5.03;;;25.60;69.30;;;;;;5022775;28;20754;-77
2023/09/18 08:00:55;;;;;;;12.25;6.43;;;25.80;68.90;;;;;;5023882;28;20140;-77
2023/09/18 08:03:23;;;;;;;13.95;5.55;;;25.70;66.80;;;;;;5020897;28;20044;-77
2023/09/18 08:05:52;;;;;;;10.25;5.50;;;25.70;67.60;;;;;;5029489;28;20053;-77
2023/09/18 08:08:23;;;;;;;7.90;5.53;;;25.60;68.70;;;;;;5038049;28;20608;-77
2023/09/18 08:10:51;;;;;;;17.80;6.15;;;25.60;68.50;;;;;;5032643;28;20044;-78
2023/09/18 08:13:19;;;;;;;15.00;6.63;;;25.40;67.70;;;;;;5042605;28;20064;-77
2023/09/18 08:15:46;;;;;;;6.68;5.47;;;25.60;70.40;;;;;;5037901;28;20134;-77
2023/09/18 08:18:13;;;;;;;11.80;6.03;;;25.70;66.10;;;;;;5040276;28;20049;-78
2023/09/18 08:20:44;;;;;;;11.82;6.03;;;25.80;69.20;;;;;;5037031;28;20052;-77
2023/09/18 08:23:12;;;;;;;11.18;5.63;;;26.00;69.80;;;;;;5039799;28;20049;-77
2023/09/18 08:25:40;;;;;;;9.98;5.82;;;26.30;68.40;;;;;;5019085;28;20126;-78
2023/09/18 08:28:07;;;;;;;7.63;5.82;;;26.50;66.80;;;;;;5036660;28;20102;-77
2023/09/18 08:30:36;;;;;;;13.10;5.60;;;26.50;67.20;;;;;;5012852;28;20484;-77
2023/09/18 08:33:04;;;;;;;6.38;4.78;;;26.80;66.60;;;;;;5020805;28;20056;-77
2023/09/18 08:35:32;;;;;;;8.07;5.03;;;26.70;66.60;;;;;;5037110;28;20056;-78
2023/09/18 08:37:59;;;;;;;9.98;5.75;;;26.70;66.00;;;;;;5019024;28;20056;-77
2023/09/18 08:40:26;;;;;;;6.68;4.82;;;26.70;66.70;;;;;;5025778;28;20101;-77
2023/09/18 08:42:56;;;;;;;10.65;4.70;;;26.80;66.00;;;;;;5023068;28;20130;-78
2023/09/18 08:45:33;;;;;;;12.10;6.28;;;27.10;63.80;;;;;;5045121;28;20163;-78
2023/09/18 08:48:01;;;;;;;11.70;5.20;;;27.20;63.70;;;;;;5041758;28;20048;-78
2023/09/18 08:50:29;;;;;;;8.88;5.32;;;27.30;63.80;;;;;;5037949;28;20081;-78
2023/09/18 08:52:56;;;;;;;8.95;4.88;;;27.50;64.50;;;;;;5038082;28;20052;-78
2023/09/18 08:55:24;;;;;;;6.80;4.65;;;27.70;63.50;;;;;;5045265;28;20488;-78
2023/09/18 08:57:53;;;;;;;9.50;5.10;;;27.90;62.70;;;;;;5022674;28;20061;-78
2023/09/18 09:00:20;;;;;;;7.65;4.35;;;27.90;61.50;;;;;;5043545;28;20856;-78
2023/09/18 09:02:50;;;;;;;5.63;4.10;;;27.70;62.50;;;;;;5039924;28;20045;-78
2023/09/18 09:05:18;;;;;;;11.98;4.90;;;27.50;59.80;;;;;;5037602;28;20053;-78
2023/09/18 09:07:45;;;;;;;154.13;19.88;;;27.40;63.70;;;;;;5037092;28;20049;-78
2023/09/18 09:10:12;;;;;;;50.65;10.52;;;27.70;65.60;;;;;;5023271;28;20044;-78
2023/09/18 09:13:02;;;;;;;25.98;7.88;;;28.10;63.40;;;;;;5036376;28;20088;-78
2023/09/18 09:15:35;;;;;;;20.65;5.93;;;28.50;59.50;;;;;;5024238;28;20056;-77
2023/09/18 09:18:08;;;;;;;9.32;4.60;;;28.70;61.00;;;;;;5044473;28;20055;-78
2023/09/18 09:20:36;;;;;;;120.20;18.92;;;28.90;60.00;;;;;;5045165;28;20776;-78
2023/09/18 09:23:08;;;;;;;10.15;5.35;;;28.70;60.20;;;;;;5023689;28;20045;-78
2023/09/18 09:25:36;;;;;;;128.07;17.77;;;28.90;61.30;;;;;;5043422;28;20062;-78
2023/09/18 09:28:06;;;;;;;7.03;4.90;;;29.00;60.10;;;;;;5039935;28;20560;-78
2023/09/18 09:30:35;;;;;;;10.13;4.75;;;29.10;60.70;;;;;;5044126;28;20068;-77
2023/09/18 09:33:04;;;;;;;6.80;4.50;;;29.10;59.60;;;;;;5030202;28;20052;-77
2023/09/18 09:35:35;;;;;;;8.95;4.78;;;29.00;58.80;;;;;;5036016;28;20063;-78
2023/09/18 09:38:08;;;;;;;6.65;4.10;;;28.80;58.60;;;;;;5026810;28;20103;-78
2023/09/18 09:40:38;;;;;;;8.20;4.60;;;28.80;58.20;;;;;;5027174;28;20059;-78
2023/09/18 09:43:08;;;;;;;4.57;3.85;;;29.00;59.50;;;;;;5045581;28;20076;-78
2023/09/18 09:45:35;;;;;;;5.93;4.43;;;29.50;59.60;;;;;;5039719;28;20084;-78
2023/09/18 09:48:08;;;;;;;4.60;4.05;;;29.70;56.50;;;;;;5034700;28;20064;-78
2023/09/18 09:50:46;;;;;;;5.90;4.10;;;29.50;56.70;;;;;;5035615;28;20057;-78
2023/09/18 09:53:14;;;;;;;6.90;4.30;;;29.10;59.80;;;;;;5030707;28;20049;-78
2023/09/18 09:55:41;;;;;;;11.18;4.40;;;29.00;59.60;;;;;;5039184;28;20190;-77
2023/09/18 09:58:10;;;;;;;11.57;5.05;;;29.00;59.60;;;;;;5032164;28;20049;-78
2023/09/18 10:00:55;;;;;;;12.02;5.13;;;28.80;59.80;;;;;;5043835;28;20051;-78
2023/09/18 10:03:22;;;;;;;11.00;4.47;;;28.40;60.50;;;;;;5039252;28;20056;-78
2023/09/18 10:05:53;;;;;;;13.27;5.18;;;28.10;61.10;;;;;;5022879;28;20049;-77
2023/09/18 10:08:26;;;;;;;7.38;5.30;;;27.90;62.40;;;;;;5040477;28;20052;-77
2023/09/18 10:10:58;;;;;;;10.05;5.15;;;27.80;62.10;;;;;;5012705;28;20049;-77
2023/09/18 10:13:32;;;;;;;4.85;4.35;;;27.70;62.00;;;;;;5024960;28;20101;-78
2023/09/18 10:16:04;;;;;;;14.95;4.85;;;27.70;64.80;;;;;;5042955;28;20048;-77
2023/09/18 10:18:44;;;;;;;7.07;4.45;;;27.80;63.10;;;;;;5017630;28;20643;-77
2023/09/18 10:21:31;;;;;;;10.77;4.97;;;28.10;63.80;;;;;;5035490;28;20053;-77
2023/09/18 10:24:19;;;;;;;7.65;4.88;;;28.40;61.10;;;;;;5034800;28;20059;-77
2023/09/18 10:27:00;;;;;;;6.68;4.05;;;28.80;63.70;;;;;;5037129;28;20067;-77
2023/09/18 10:29:29;;;;;;;6.10;4.30;;;29.10;62.60;;;;;;5033405;28;20124;-78
2023/09/18 10:31:57;;;;;;;7.38;4.03;;;29.90;60.00;;;;;;5041872;28;20055;-78
2023/09/18 10:34:25;;;;;;;5.00;4.32;;;30.10;60.50;;;;;;5015725;28;20045;-78
2023/09/18 10:36:54;;;;;;;7.38;4.30;;;30.00;57.40;;;;;;5036900;28;20045;-78
2023/09/18 10:39:24;;;;;;;6.25;4.47;;;29.50;57.30;;;;;;5035939;28;20053;-79
2023/09/18 10:41:54;;;;;;;8.60;4.55;;;29.40;57.80;;;;;;5021485;28;20045;-77
2023/09/18 10:44:22;;;;;;;5.70;4.35;;;29.20;57.00;;;;;;5017809;28;20128;-78
2023/09/18 10:46:51;;;;;;;10.73;4.10;;;28.90;57.30;;;;;;5044041;28;20037;-77
2023/09/18 10:49:19;;;;;;;6.15;4.28;;;28.50;58.70;;;;;;5044039;28;20118;-78
2023/09/18 10:51:47;;;;;;;7.13;4.65;;;28.50;60.20;;;;;;5040997;28;20106;-77
2023/09/18 10:54:21;;;;;;;7.30;4.03;;;28.60;59.60;;;;;;5043899;28;20048;-77
2023/09/18 10:56:49;;;;;;;5.38;4.10;;;28.60;58.50;;;;;;5042202;28;20143;-78
2023/09/18 10:59:17;;;;;;;6.40;4.63;;;28.50;58.40;;;;;;5015008;28;20056;-77
2023/09/18 11:01:48;;;;;;;7.75;3.97;;;28.20;59.50;;;;;;5037329;28;20150;-77
2023/09/18 11:04:19;;;;;;;5.03;4.50;;;27.90;59.30;;;;;;5027152;28;20052;-77
2023/09/18 11:06:55;;;;;;;6.97;4.88;;;27.60;60.40;;;;;;5041573;28;20451;-77
2023/09/18 11:09:25;;;;;;;9.95;4.55;;;27.30;62.30;;;;;;5014425;28;20053;-77
2023/09/18 11:12:02;;;;;;;10.85;4.50;;;27.10;61.70;;;;;;5042071;28;20162;-77
2023/09/18 11:14:44;;;;;;;6.32;4.75;;;26.90;63.60;;;;;;5020344;28;20084;-77
2023/09/18 11:17:39;;;;;;;6.43;4.57;;;26.60;62.50;;;;;;5043542;28;20532;-77
2023/09/18 11:20:17;;;;;;;9.55;5.07;;;26.40;64.00;;;;;;5011766;28;20048;-77
2023/09/18 11:22:47;;;;;;;5.85;4.25;;;26.30;64.20;;;;;;5020934;28;20474;-78
2023/09/18 11:25:41;;;;;;;14.02;4.97;;;26.20;65.10;;;;;;5039248;28;20052;-77
2023/09/18 11:28:24;;;;;;;5.30;4.20;;;26.10;64.80;;;;;;5038346;28;20449;-78
2023/09/18 11:31:01;;;;;;;8.98;4.70;;;26.10;65.60;;;;;;5021821;28;20056;-77
2023/09/18 11:33:34;;;;;;;7.03;4.32;;;26.00;65.30;;;;;;5033880;28;20064;-77
2023/09/18 11:36:07;;;;;;;6.43;4.70;;;25.90;64.90;;;;;;5026814;28;20053;-77
2023/09/18 11:38:55;;;;;;;11.35;5.18;;;25.90;65.30;;;;;;5040321;28;20052;-77
2023/09/18 11:41:27;;;;;;;6.07;4.70;;;25.80;65.80;;;;;;5028109;28;20116;-77
2023/09/18 11:44:16;;;;;;;9.13;5.18;;;25.60;64.70;;;;;;5036602;28;20762;-77
2023/09/18 11:46:50;;;;;;;6.07;4.50;;;25.50;64.60;;;;;;5041818;28;20132;-78
2023/09/18 11:49:26;;;;;;;34.22;8.02;;;25.30;64.70;;;;;;5043214;28;20382;-77
2023/09/18 11:51:54;;;;;;;17.40;5.88;;;25.10;65.50;;;;;;5016161;28;20049;-77
2023/09/18 11:54:22;;;;;;;13.00;4.97;;;25.00;66.40;;;;;;5043046;28;20114;-77
2023/09/18 11:56:48;;;;;;;24.77;6.40;;;25.10;67.50;;;;;;5037864;28;20050;-77
2023/09/18 11:59:17;;;;;;;7.88;4.57;;;25.20;66.60;;;;;;5037088;28;20049;-77
2023/09/18 12:01:52;;;;;;;8.35;4.35;;;25.40;67.50;;;;;;5042765;28;20056;-77
2023/09/18 12:04:27;;;;;;;108.68;14.75;;;25.60;67.40;;;;;;5038696;28;20048;-78
2023/09/18 12:06:54;;;;;;;9.30;4.70;;;26.20;67.70;;;;;;5033448;28;20065;-78
2023/09/18 12:09:21;;;;;;;10.38;4.57;;;26.60;64.10;;;;;;5039740;28;20436;-78
2023/09/18 12:11:50;;;;;;;10.10;4.82;;;26.80;63.90;;;;;;5023818;28;20209;-79
2023/09/18 12:14:20;;;;;;;21.13;5.15;;;26.80;63.70;;;;;;5045124;28;20053;-77
2023/09/18 12:16:50;;;;;;;7.25;4.55;;;26.90;64.40;;;;;;5049509;28;20076;-79
2023/09/18 12:19:18;;;;;;;8.80;4.88;;;26.90;62.90;;;;;;5047111;28;20122;-79
2023/09/18 12:21:49;;;;;;;10.80;4.03;;;27.00;63.20;;;;;;5046283;28;20118;-77
2023/09/18 12:24:23;;;;;;;11.05;4.65;;;27.10;62.10;;;;;;5019377;28;20041;-77
2023/09/18 12:26:51;;;;;;;7.30;4.80;;;27.20;63.10;;;;;;5008546;28;20680;-76
2023/09/18 12:29:19;;;;;;;9.07;4.88;;;27.20;61.60;;;;;;5018894;28;20068;-77
2023/09/18 12:31:47;;;;;;;17.15;5.53;;;26.90;62.10;;;;;;5033517;28;20052;-76
2023/09/18 12:34:21;;;;;;;7.60;4.25;;;26.60;62.40;;;;;;5016018;28;20048;-76
2023/09/18 12:36:50;;;;;;;15.00;4.57;;;26.30;62.30;;;;;;5037012;28;20046;-76
2023/09/18 12:39:18;;;;;;;129.32;18.70;;;26.20;64.50;;;;;;5021072;28;20477;-76